METAR Data
IDs: Format: Raw Decoded Include TAF

Data at: 2155 UTC 02 Aug 2021

EKEB 022150Z AUTO 24005KT 9999 OVC030/// 13/12 Q1012